Nanoose Bay, British Columbia

Past 24 Hour Conditions

Date / Time
(PST)
Conditions Temp
(°F)
Humidity
(%)
Dew Point
(°F)
Wind
(mph)
Pressure
(inches)
Visibility
(miles)
23 November 2014
10:00 N/A 45 89 42 calm N/A N/A
9:00 N/A 43 91 41 NNE 3 N/A N/A
8:00 N/A 43 91 40 N 4 N/A N/A
7:00 N/A 43 91 41 S 5 N/A N/A
6:00 N/A 42 93 40 WNW 7 N/A N/A
5:00 N/A 43 93 41 calm N/A N/A
4:00 N/A 43 92 41 NE 4 N/A N/A
3:00 N/A 44 87 41 ENE 5 N/A N/A
2:00 N/A 45 83 41 NW 5 N/A N/A
1:00 N/A 44 85 40 calm N/A N/A
00:00 N/A 42 92 40 calm N/A N/A
22 November 2014
23:00 N/A 40 94 38 calm N/A N/A
22:00 N/A 40 94 38 WSW 3 N/A N/A
21:00 N/A 39   94 37 calm N/A N/A
20:00 N/A 40 94 38 calm N/A N/A
19:00 N/A 41 93 39 WNW 2 N/A N/A
18:00 N/A 41 92 39 WNW 2 N/A N/A
17:00 N/A 43 89 41 WNW 2 N/A N/A
16:00 N/A 46 84 41 WSW 2 N/A N/A
15:00 N/A 48 74 40 WNW 8 N/A N/A
14:00 N/A 48 75 40 WNW 7 N/A N/A
13:00 N/A 49   75 42 WSW 2 N/A N/A
12:00 N/A 48 78 41 SSE 2 N/A N/A
11:00 N/A 44 86 40 WSW 3 N/A N/A
10:00 N/A 42 89 39 SW 2 N/A N/A
N/A Not available
↑ Highest temperature
↓ Lowest temperature

If you require additional historical weather information, please visit Climate Data Online.

Date modified: